sensor_id;sensor_type;location;lat;lon;timestamp;pressure;altitude;pressure_sealevel;temperature;humidity
24013;BME280;12220;50.194;18.948;2022-12-18T00:00:29;103431.53;;;-2.41;73.66
24013;BME280;12220;50.194;18.948;2022-12-18T00:02:39;103432.51;;;-2.38;73.67
24013;BME280;12220;50.194;18.948;2022-12-18T00:04:40;103437.06;;;-2.35;73.51
24013;BME280;12220;50.194;18.948;2022-12-18T00:06:41;103438.88;;;-2.34;73.46
24013;BME280;12220;50.194;18.948;2022-12-18T00:08:44;103438.88;;;-2.34;73.37
24013;BME280;12220;50.194;18.948;2022-12-18T00:10:54;103443.36;;;-2.33;73.45
24013;BME280;12220;50.194;18.948;2022-12-18T00:13:02;103450.63;;;-2.29;73.39
24013;BME280;12220;50.194;18.948;2022-12-18T00:15:05;103460.52;;;-2.28;73.39
24013;BME280;12220;50.194;18.948;2022-12-18T00:17:07;103457.83;;;-2.28;73.42
24013;BME280;12220;50.194;18.948;2022-12-18T00:19:11;103448.03;;;-2.26;73.33
24013;BME280;12220;50.194;18.948;2022-12-18T00:21:13;103455.99;;;-2.29;73.02
24013;BME280;12220;50.194;18.948;2022-12-18T00:23:15;103459.50;;;-2.32;73.04
24013;BME280;12220;50.194;18.948;2022-12-18T00:25:16;103457.70;;;-2.33;73.10
24013;BME280;12220;50.194;18.948;2022-12-18T00:27:25;103463.00;;;-2.36;73.04
24013;BME280;12220;50.194;18.948;2022-12-18T00:29:26;103465.65;;;-2.37;73.13
24013;BME280;12220;50.194;18.948;2022-12-18T00:31:28;103461.22;;;-2.35;73.14
24013;BME280;12220;50.194;18.948;2022-12-18T00:33:29;103302.15;;;-3.30;73.03
24013;BME280;12220;50.194;18.948;2022-12-18T00:35:31;103476.50;;;-2.33;73.20
24013;BME280;12220;50.194;18.948;2022-12-18T00:37:36;103467.59;;;-2.30;73.26
24013;BME280;12220;50.194;18.948;2022-12-18T00:39:37;103472.11;;;-2.29;73.03
24013;BME280;12220;50.194;18.948;2022-12-18T00:41:39;103473.09;;;-2.27;73.16
24013;BME280;12220;50.194;18.948;2022-12-18T00:44:01;103477.56;;;-2.26;73.13
24013;BME280;12220;50.194;18.948;2022-12-18T00:46:03;103490.08;;;-2.26;73.00
24013;BME280;12220;50.194;18.948;2022-12-18T00:48:04;103493.63;;;-2.28;73.03
24013;BME280;12220;50.194;18.948;2022-12-18T00:50:07;103503.50;;;-2.26;73.10
24013;BME280;12220;50.194;18.948;2022-12-18T00:52:15;103488.30;;;-2.26;73.10
24013;BME280;12220;50.194;18.948;2022-12-18T00:54:17;103492.73;;;-2.28;73.04
24013;BME280;12220;50.194;18.948;2022-12-18T00:56:18;103497.23;;;-2.27;73.05
24013;BME280;12220;50.194;18.948;2022-12-18T00:58:19;103489.19;;;-2.27;73.01
24013;BME280;12220;50.194;18.948;2022-12-18T01:00:30;103503.45;;;-2.28;73.00
24013;BME280;12220;50.194;18.948;2022-12-18T01:02:32;103252.59;;;-3.76;72.81
24013;BME280;12220;50.194;18.948;2022-12-18T01:04:34;103515.02;;;-2.31;72.97
24013;BME280;12220;50.194;18.948;2022-12-18T01:06:35;103516.84;;;-2.30;73.08
24013;BME280;12220;50.194;18.948;2022-12-18T01:08:46;103512.45;;;-2.26;73.15
24013;BME280;12220;50.194;18.948;2022-12-18T01:10:48;103521.52;;;-2.22;73.21
24013;BME280;12220;50.194;18.948;2022-12-18T01:12:51;103522.46;;;-2.20;73.12
24013;BME280;12220;50.194;18.948;2022-12-18T01:14:52;103524.29;;;-2.19;73.03
24013;BME280;12220;50.194;18.948;2022-12-18T01:17:02;103524.29;;;-2.19;72.96
24013;BME280;12220;50.194;18.948;2022-12-18T01:19:04;103518.05;;;-2.18;73.00
24013;BME280;12220;50.194;18.948;2022-12-18T01:21:14;103259.20;;;-3.63;72.77
24013;BME280;12220;50.194;18.948;2022-12-18T01:23:16;103511.72;;;-2.20;72.81
24013;BME280;12220;50.194;18.948;2022-12-18T01:25:18;103516.19;;;-2.21;72.84
24013;BME280;12220;50.194;18.948;2022-12-18T01:27:19;103516.15;;;-2.22;72.83
24013;BME280;12220;50.194;18.948;2022-12-18T01:29:20;103516.06;;;-2.25;72.76
24013;BME280;12220;50.194;18.948;2022-12-18T01:31:27;103517.79;;;-2.28;72.72
24013;BME280;12220;50.194;18.948;2022-12-18T01:33:32;103516.03;;;-2.27;72.84
24013;BME280;12220;50.194;18.948;2022-12-18T01:35:41;103516.03;;;-2.27;72.93
24013;BME280;12220;50.194;18.948;2022-12-18T01:37:43;103518.75;;;-2.25;72.93
24013;BME280;12220;50.194;18.948;2022-12-18T01:39:44;103517.01;;;-2.23;72.85
24013;BME280;12220;50.194;18.948;2022-12-18T01:41:48;103518.84;;;-2.22;72.90
24013;BME280;12220;50.194;18.948;2022-12-18T01:46:31;103530.47;;;-2.22;72.83
24013;BME280;12220;50.194;18.948;2022-12-18T01:48:32;103532.30;;;-2.21;72.87
24013;BME280;12220;50.194;18.948;2022-12-18T01:50:37;103533.19;;;-2.20;72.83
24013;BME280;12220;50.194;18.948;2022-12-18T01:52:50;103543.04;;;-2.21;72.81
24013;BME280;12220;50.194;18.948;2022-12-18T01:54:51;103541.21;;;-2.22;72.83
24013;BME280;12220;50.194;18.948;2022-12-18T01:56:54;103542.17;;;-2.20;72.94
24013;BME280;12220;50.194;18.948;2022-12-18T01:59:03;103548.53;;;-2.16;72.98
24013;BME280;12220;50.194;18.948;2022-12-18T02:01:08;103551.22;;;-2.16;72.79
24013;BME280;12220;50.194;18.948;2022-12-18T02:03:10;103552.11;;;-2.16;72.67
24013;BME280;12220;50.194;18.948;2022-12-18T02:05:13;103559.23;;;-2.18;72.72
24013;BME280;12220;50.194;18.948;2022-12-18T02:09:38;103560.90;;;-2.21;72.58
24013;BME280;12220;50.194;18.948;2022-12-18T02:11:57;103568.95;;;-2.21;72.64
24013;BME280;12220;50.194;18.948;2022-12-18T02:18:38;103567.93;;;-2.26;72.60
24013;BME280;12220;50.194;18.948;2022-12-18T02:21:08;103573.26;;;-2.28;72.57
24013;BME280;12220;50.194;18.948;2022-12-18T02:27:59;103576.59;;;-2.37;72.44
24013;BME280;12220;50.194;18.948;2022-12-18T02:30:03;103582.81;;;-2.38;72.45
24013;BME280;12220;50.194;18.948;2022-12-18T02:32:10;103585.44;;;-2.39;72.52
24013;BME280;12220;50.194;18.948;2022-12-18T02:34:14;103577.36;;;-2.41;72.46
24013;BME280;12220;50.194;18.948;2022-12-18T02:36:18;103580.01;;;-2.42;72.41
24013;BME280;12220;50.194;18.948;2022-12-18T02:38:32;103581.73;;;-2.44;72.38
24013;BME280;12220;50.194;18.948;2022-12-18T02:40:35;103589.73;;;-2.46;72.43
24013;BME280;12220;50.194;18.948;2022-12-18T02:42:38;103594.08;;;-2.50;72.40
24013;BME280;12220;50.194;18.948;2022-12-18T02:44:47;103591.41;;;-2.50;72.47
24013;BME280;12220;50.194;18.948;2022-12-18T02:46:50;103601.34;;;-2.47;72.62
24013;BME280;12220;50.194;18.948;2022-12-18T02:49:01;103596.91;;;-2.45;72.73
24013;BME280;12220;50.194;18.948;2022-12-18T02:51:09;103604.20;;;-2.41;72.82
24013;BME280;12220;50.194;18.948;2022-12-18T02:55:37;103619.57;;;-2.35;72.74
24013;BME280;12220;50.194;18.948;2022-12-18T02:57:49;103622.34;;;-2.32;72.76
24013;BME280;12220;50.194;18.948;2022-12-18T03:00:01;103628.73;;;-2.29;72.82
24013;BME280;12220;50.194;18.948;2022-12-18T03:04:44;103631.55;;;-2.24;72.67
24013;BME280;12220;50.194;18.948;2022-12-18T03:06:59;103635.13;;;-2.23;72.62
24013;BME280;12220;50.194;18.948;2022-12-18T03:09:10;103630.70;;;-2.21;72.68
24013;BME280;12220;50.194;18.948;2022-12-18T03:11:13;103634.36;;;-2.19;72.70
24013;BME280;12220;50.194;18.948;2022-12-18T03:13:21;103634.40;;;-2.18;72.66
24013;BME280;12220;50.194;18.948;2022-12-18T03:15:30;103644.25;;;-2.18;72.65
24013;BME280;12220;50.194;18.948;2022-12-18T03:17:42;103638.93;;;-2.17;72.69
24013;BME280;12220;50.194;18.948;2022-12-18T03:19:47;103641.65;;;-2.15;72.68
24013;BME280;12220;50.194;18.948;2022-12-18T03:21:53;103643.48;;;-2.13;72.72
24013;BME280;12220;50.194;18.948;2022-12-18T03:23:56;103636.40;;;-2.11;72.67
24013;BME280;12220;50.194;18.948;2022-12-18T03:26:01;103642.67;;;-2.10;72.62
24013;BME280;12220;50.194;18.948;2022-12-18T03:28:05;103673.18;;;-2.08;72.67
24013;BME280;12220;50.194;18.948;2022-12-18T03:32:42;103642.88;;;-2.04;72.60
24013;BME280;12220;50.194;18.948;2022-12-18T03:34:47;103637.50;;;-2.04;72.58
24013;BME280;12220;50.194;18.948;2022-12-18T03:36:51;103642.91;;;-2.02;72.56
24013;BME280;12220;50.194;18.948;2022-12-18T03:38:53;103645.61;;;-2.02;72.55
24013;BME280;12220;50.194;18.948;2022-12-18T03:41:06;103650.05;;;-2.03;72.58
24013;BME280;12220;50.194;18.948;2022-12-18T03:43:38;103651.88;;;-2.02;72.62
24013;BME280;12220;50.194;18.948;2022-12-18T03:45:26;103649.23;;;-2.00;72.53
24013;BME280;12220;50.194;18.948;2022-12-18T03:47:36;103650.09;;;-2.01;72.40
24013;BME280;12220;50.194;18.948;2022-12-18T03:49:50;103650.98;;;-2.02;72.41
24013;BME280;12220;50.194;18.948;2022-12-18T03:52:03;103651.74;;;-2.06;72.29
24013;BME280;12220;50.194;18.948;2022-12-18T03:54:07;103658.83;;;-2.08;72.23
24013;BME280;12220;50.194;18.948;2022-12-18T03:58:38;103414.75;;;-3.57;72.22
24013;BME280;12220;50.194;18.948;2022-12-18T04:07:57;103671.77;;;-2.25;71.95
24013;BME280;12220;50.194;18.948;2022-12-18T04:10:01;103665.38;;;-2.29;72.02
24013;BME280;12220;50.194;18.948;2022-12-18T04:12:04;103669.81;;;-2.31;72.22
24013;BME280;12220;50.194;18.948;2022-12-18T04:14:05;103676.88;;;-2.33;72.35
24013;BME280;12220;50.194;18.948;2022-12-18T04:16:07;103678.66;;;-2.34;72.41
24013;BME280;12220;50.194;18.948;2022-12-18T04:18:13;103676.88;;;-2.33;72.39
24013;BME280;12220;50.194;18.948;2022-12-18T04:20:15;103685.83;;;-2.34;72.37
24013;BME280;12220;50.194;18.948;2022-12-18T04:22:16;103690.26;;;-2.35;72.36
24013;BME280;12220;50.194;18.948;2022-12-18T04:24:18;103678.63;;;-2.35;72.41
24013;BME280;12220;50.194;18.948;2022-12-18T04:26:28;103683.98;;;-2.35;72.36
24013;BME280;12220;50.194;18.948;2022-12-18T04:28:30;103681.21;;;-2.38;72.42
24013;BME280;12220;50.194;18.948;2022-12-18T04:30:31;103691.95;;;-2.38;72.18
24013;BME280;12220;50.194;18.948;2022-12-18T04:32:34;103698.17;;;-2.39;72.39
24013;BME280;12220;50.194;18.948;2022-12-18T04:34:44;103704.45;;;-2.39;72.42
24013;BME280;12220;50.194;18.948;2022-12-18T04:36:45;103700.00;;;-2.38;72.48
24013;BME280;12220;50.194;18.948;2022-12-18T04:38:46;103699.07;;;-2.39;72.46
24013;BME280;12220;50.194;18.948;2022-12-18T04:40:48;103699.16;;;-2.37;72.51
24013;BME280;12220;50.194;18.948;2022-12-18T04:43:00;103704.56;;;-2.36;72.55
24013;BME280;12220;50.194;18.948;2022-12-18T04:45:01;103717.95;;;-2.37;72.49
24013;BME280;12220;50.194;18.948;2022-12-18T04:47:03;103713.46;;;-2.37;72.48
24013;BME280;12220;50.194;18.948;2022-12-18T04:49:04;103718.88;;;-2.35;72.55
24013;BME280;12220;50.194;18.948;2022-12-18T04:51:15;103709.09;;;-2.33;72.59
24013;BME280;12220;50.194;18.948;2022-12-18T04:53:16;103724.34;;;-2.32;72.61
24013;BME280;12220;50.194;18.948;2022-12-18T04:55:18;103725.24;;;-2.32;72.60
24013;BME280;12220;50.194;18.948;2022-12-18T04:57:19;103733.34;;;-2.30;72.46
24013;BME280;12220;50.194;18.948;2022-12-18T04:59:33;103736.96;;;-2.30;72.42
24013;BME280;12220;50.194;18.948;2022-12-18T05:01:34;103742.34;;;-2.30;72.55
24013;BME280;12220;50.194;18.948;2022-12-18T05:03:36;103748.59;;;-2.29;72.58
24013;BME280;12220;50.194;18.948;2022-12-18T05:05:38;103754.95;;;-2.27;72.58
24013;BME280;12220;50.194;18.948;2022-12-18T05:07:45;103754.99;;;-2.25;72.58
24013;BME280;12220;50.194;18.948;2022-12-18T05:09:47;103759.47;;;-2.24;72.52
24013;BME280;12220;50.194;18.948;2022-12-18T05:11:48;103757.73;;;-2.24;72.49
24013;BME280;12220;50.194;18.948;2022-12-18T05:13:49;103737.80;;;-2.31;72.50
24013;BME280;12220;50.194;18.948;2022-12-18T05:15:52;103747.89;;;-2.23;72.55
24013;BME280;12220;50.194;18.948;2022-12-18T05:17:53;103762.26;;;-2.21;72.51
24013;BME280;12220;50.194;18.948;2022-12-18T05:19:55;103753.39;;;-2.19;72.53
24013;BME280;12220;50.194;18.948;2022-12-18T05:21:58;103660.50;;;-2.71;72.49
24013;BME280;12220;50.194;18.948;2022-12-18T05:24:00;103756.18;;;-2.16;72.54
24013;BME280;12220;50.194;18.948;2022-12-18T05:26:03;103761.59;;;-2.14;72.44
24013;BME280;12220;50.194;18.948;2022-12-18T05:28:05;103759.74;;;-2.17;72.28
24013;BME280;12220;50.194;18.948;2022-12-18T05:30:15;103765.02;;;-2.20;72.21
24013;BME280;12220;50.194;18.948;2022-12-18T05:32:16;103763.09;;;-2.24;72.25
24013;BME280;12220;50.194;18.948;2022-12-18T05:34:18;103763.94;;;-2.25;72.26
24013;BME280;12220;50.194;18.948;2022-12-18T05:36:19;103768.42;;;-2.25;72.30
24013;BME280;12220;50.194;18.948;2022-12-18T05:38:31;103772.01;;;-2.25;72.40
24013;BME280;12220;50.194;18.948;2022-12-18T05:40:33;103509.80;;;-3.72;72.34
24013;BME280;12220;50.194;18.948;2022-12-18T05:42:34;103764.84;;;-2.24;72.51
24013;BME280;12220;50.194;18.948;2022-12-18T05:44:35;103774.78;;;-2.22;72.46
24013;BME280;12220;50.194;18.948;2022-12-18T05:46:46;103781.88;;;-2.24;72.47
24013;BME280;12220;50.194;18.948;2022-12-18T05:48:47;103780.10;;;-2.23;72.43
24013;BME280;12220;50.194;18.948;2022-12-18T05:50:51;103774.68;;;-2.25;72.42
24013;BME280;12220;50.194;18.948;2022-12-18T05:52:53;103785.42;;;-2.25;72.44
24013;BME280;12220;50.194;18.948;2022-12-18T05:55:01;103780.10;;;-2.23;72.50
24013;BME280;12220;50.194;18.948;2022-12-18T05:57:02;103782.79;;;-2.23;72.49
24013;BME280;12220;50.194;18.948;2022-12-18T05:59:04;103774.78;;;-2.22;72.42
24013;BME280;12220;50.194;18.948;2022-12-18T06:01:16;103781.94;;;-2.22;72.37
24013;BME280;12220;50.194;18.948;2022-12-18T06:03:16;103779.21;;;-2.24;72.31
24013;BME280;12220;50.194;18.948;2022-12-18T06:05:17;103794.32;;;-2.26;72.32
24013;BME280;12220;50.194;18.948;2022-12-18T06:07:19;103784.47;;;-2.27;72.30
24013;BME280;12220;50.194;18.948;2022-12-18T06:09:20;103779.95;;;-2.28;72.31
24013;BME280;12220;50.194;18.948;2022-12-18T06:11:31;103789.80;;;-2.29;72.34
24013;BME280;12220;50.194;18.948;2022-12-18T06:13:33;103787.91;;;-2.31;72.29
24013;BME280;12220;50.194;18.948;2022-12-18T06:15:36;103799.46;;;-2.34;72.23
24013;BME280;12220;50.194;18.948;2022-12-18T06:17:38;103802.05;;;-2.37;72.26
24013;BME280;12220;50.194;18.948;2022-12-18T06:19:47;103798.46;;;-2.37;72.26
24013;BME280;12220;50.194;18.948;2022-12-18T06:21:48;103797.48;;;-2.39;72.26
24013;BME280;12220;50.194;18.948;2022-12-18T06:23:50;103803.65;;;-2.42;72.22
24013;BME280;12220;50.194;18.948;2022-12-18T06:25:52;103803.70;;;-2.40;72.32
24013;BME280;12220;50.194;18.948;2022-12-18T06:28:02;103801.02;;;-2.40;72.44
24013;BME280;12220;50.194;18.948;2022-12-18T06:30:04;103824.33;;;-2.39;72.52
24013;BME280;12220;50.194;18.948;2022-12-18T06:32:06;103810.90;;;-2.39;72.56
24013;BME280;12220;50.194;18.948;2022-12-18T06:34:07;103812.84;;;-2.35;72.58
24013;BME280;12220;50.194;18.948;2022-12-18T06:36:17;103816.47;;;-2.33;72.56
24013;BME280;12220;50.194;18.948;2022-12-18T06:38:18;103829.04;;;-2.32;72.53
24013;BME280;12220;50.194;18.948;2022-12-18T06:40:20;103817.41;;;-2.33;72.49
24013;BME280;12220;50.194;18.948;2022-12-18T06:42:21;103832.57;;;-2.33;72.42
24013;BME280;12220;50.194;18.948;2022-12-18T06:44:32;103827.20;;;-2.33;72.44
24013;BME280;12220;50.194;18.948;2022-12-18T06:46:33;103835.25;;;-2.33;72.42
24013;BME280;12220;50.194;18.948;2022-12-18T06:48:35;103842.42;;;-2.34;72.37
24013;BME280;12220;50.194;18.948;2022-12-18T06:50:36;103840.58;;;-2.35;72.32
24013;BME280;12220;50.194;18.948;2022-12-18T06:52:47;103842.31;;;-2.37;72.28
24013;BME280;12220;50.194;18.948;2022-12-18T06:54:49;103850.32;;;-2.38;72.35
24013;BME280;12220;50.194;18.948;2022-12-18T06:56:50;103847.63;;;-2.38;72.47
24013;BME280;12220;50.194;18.948;2022-12-18T06:58:52;103855.79;;;-2.35;72.57
24013;BME280;12220;50.194;18.948;2022-12-18T07:00:53;103856.69;;;-2.35;72.51
24013;BME280;12220;50.194;18.948;2022-12-18T07:02:57;103864.69;;;-2.36;72.35
24013;BME280;12220;50.194;18.948;2022-12-18T07:04:59;103862.88;;;-2.37;72.35
24013;BME280;12220;50.194;18.948;2022-12-18T07:07:02;103866.47;;;-2.37;72.48
24013;BME280;12220;50.194;18.948;2022-12-18T07:09:04;103869.20;;;-2.35;72.53
24013;BME280;12220;50.194;18.948;2022-12-18T07:11:05;103867.47;;;-2.33;72.55
24013;BME280;12220;50.194;18.948;2022-12-18T07:13:07;103868.45;;;-2.31;72.60
24013;BME280;12220;50.194;18.948;2022-12-18T07:15:18;103872.03;;;-2.31;72.48
24013;BME280;12220;50.194;18.948;2022-12-18T07:17:20;103877.45;;;-2.29;72.42
24013;BME280;12220;50.194;18.948;2022-12-18T07:19:21;103881.88;;;-2.31;72.44
24013;BME280;12220;50.194;18.948;2022-12-18T07:21:24;103626.54;;;-3.78;72.27
24013;BME280;12220;50.194;18.948;2022-12-18T07:23:34;103892.62;;;-2.31;72.47
24013;BME280;12220;50.194;18.948;2022-12-18T07:25:36;103895.30;;;-2.31;72.44
24013;BME280;12220;50.194;18.948;2022-12-18T07:27:38;103889.88;;;-2.33;72.37
24013;BME280;12220;50.194;18.948;2022-12-18T07:29:39;103898.84;;;-2.32;72.43
24013;BME280;12220;50.194;18.948;2022-12-18T07:31:48;103895.30;;;-2.31;72.51
24013;BME280;12220;50.194;18.948;2022-12-18T07:33:50;103895.40;;;-2.28;72.60
24013;BME280;12220;50.194;18.948;2022-12-18T07:35:52;103900.87;;;-2.25;72.62
24013;BME280;12220;50.194;18.948;2022-12-18T07:37:53;103902.80;;;-2.21;72.62
24013;BME280;12220;50.194;18.948;2022-12-18T07:40:04;103903.75;;;-2.19;72.59
24013;BME280;12220;50.194;18.948;2022-12-18T07:42:05;103907.42;;;-2.17;72.56
24013;BME280;12220;50.194;18.948;2022-12-18T07:44:18;103903.80;;;-2.17;72.42
24013;BME280;12220;50.194;18.948;2022-12-18T07:46:20;103898.42;;;-2.17;72.40
24013;BME280;12220;50.194;18.948;2022-12-18T07:48:24;103896.63;;;-2.18;72.36
24013;BME280;12220;50.194;18.948;2022-12-18T07:50:25;103905.54;;;-2.19;72.34
24013;BME280;12220;50.194;18.948;2022-12-18T07:52:26;103905.59;;;-2.18;72.35
24013;BME280;12220;50.194;18.948;2022-12-18T07:54:28;103904.69;;;-2.18;72.35
24013;BME280;12220;50.194;18.948;2022-12-18T07:56:39;103901.11;;;-2.17;72.36
24013;BME280;12220;50.194;18.948;2022-12-18T07:58:40;103901.06;;;-2.19;72.24
24013;BME280;12220;50.194;18.948;2022-12-18T08:00:42;103901.95;;;-2.20;72.10
24013;BME280;12220;50.194;18.948;2022-12-18T08:02:43;103900.06;;;-2.22;72.11
24013;BME280;12220;50.194;18.948;2022-12-18T08:04:57;103904.55;;;-2.21;72.14
24013;BME280;12220;50.194;18.948;2022-12-18T08:06:59;103895.49;;;-2.25;72.16
24013;BME280;12220;50.194;18.948;2022-12-18T08:09:00;103897.33;;;-2.24;72.20
24013;BME280;12220;50.194;18.948;2022-12-18T08:11:02;103900.96;;;-2.22;72.16
24013;BME280;12220;50.194;18.948;2022-12-18T08:13:09;103902.75;;;-2.22;72.12
24013;BME280;12220;50.194;18.948;2022-12-18T08:15:11;103909.88;;;-2.23;72.07
24013;BME280;12220;50.194;18.948;2022-12-18T08:17:12;103906.29;;;-2.23;72.04
24013;BME280;12220;50.194;18.948;2022-12-18T08:19:13;103908.97;;;-2.23;71.99
24013;BME280;12220;50.194;18.948;2022-12-18T08:21:27;103916.13;;;-2.24;71.99
24013;BME280;12220;50.194;18.948;2022-12-18T08:23:29;103914.39;;;-2.22;72.03
24013;BME280;12220;50.194;18.948;2022-12-18T08:25:30;103903.65;;;-2.22;71.93
24013;BME280;12220;50.194;18.948;2022-12-18T08:27:31;103921.50;;;-2.24;71.79
24013;BME280;12220;50.194;18.948;2022-12-18T08:29:40;103925.88;;;-2.26;71.82
24013;BME280;12220;50.194;18.948;2022-12-18T08:31:42;103924.09;;;-2.27;71.88
24013;BME280;12220;50.194;18.948;2022-12-18T08:33:43;103918.71;;;-2.27;71.94
24013;BME280;12220;50.194;18.948;2022-12-18T08:35:45;103931.30;;;-2.24;71.98
24013;BME280;12220;50.194;18.948;2022-12-18T08:37:46;103929.55;;;-2.24;71.99
24013;BME280;12220;50.194;18.948;2022-12-18T08:39:47;103930.45;;;-2.23;71.92
24013;BME280;12220;50.194;18.948;2022-12-18T08:41:49;103935.83;;;-2.23;71.76
24013;BME280;12220;50.194;18.948;2022-12-18T08:44:02;103938.41;;;-2.26;71.71
24013;BME280;12220;50.194;18.948;2022-12-18T08:46:15;103940.14;;;-2.29;71.74
24013;BME280;12220;50.194;18.948;2022-12-18T08:48:17;103949.04;;;-2.30;71.70
24013;BME280;12220;50.194;18.948;2022-12-18T08:50:18;103943.62;;;-2.31;71.69
24013;BME280;12220;50.194;18.948;2022-12-18T08:52:20;103945.33;;;-2.33;71.73
24013;BME280;12220;50.194;18.948;2022-12-18T08:54:29;103955.21;;;-2.32;71.80
24013;BME280;12220;50.194;18.948;2022-12-18T08:58:58;103968.79;;;-2.28;71.76
24013;BME280;12220;50.194;18.948;2022-12-18T09:01:00;103959.88;;;-2.26;71.76
24013;BME280;12220;50.194;18.948;2022-12-18T09:03:03;103967.09;;;-2.25;71.80
24013;BME280;12220;50.194;18.948;2022-12-18T09:05:05;103964.44;;;-2.24;71.81
24013;BME280;12220;50.194;18.948;2022-12-18T09:07:06;104016.47;;;-2.20;71.79
24013;BME280;12220;50.194;18.948;2022-12-18T09:09:09;103983.46;;;-2.18;71.75
24013;BME280;12220;50.194;18.948;2022-12-18T09:11:21;103971.68;;;-2.21;71.59
24013;BME280;12220;50.194;18.948;2022-12-18T09:13:33;103977.98;;;-2.21;71.52
24013;BME280;12220;50.194;18.948;2022-12-18T09:15:49;103985.05;;;-2.23;71.52
24013;BME280;12220;50.194;18.948;2022-12-18T09:17:46;103989.52;;;-2.23;71.60
24013;BME280;12220;50.194;18.948;2022-12-18T09:20:00;103987.78;;;-2.21;71.66
24013;BME280;12220;50.194;18.948;2022-12-18T09:22:01;103990.55;;;-2.20;71.69
24013;BME280;12220;50.194;18.948;2022-12-18T09:24:06;103978.08;;;-2.18;71.74
24013;BME280;12220;50.194;18.948;2022-12-18T09:28:42;103979.27;;;-2.09;71.72
24013;BME280;12220;50.194;18.948;2022-12-18T09:30:48;103976.63;;;-2.08;71.66
24013;BME280;12220;50.194;18.948;2022-12-18T09:32:50;103973.12;;;-2.05;71.64
24013;BME280;12220;50.194;18.948;2022-12-18T09:34:51;103977.64;;;-2.04;71.60
24013;BME280;12220;50.194;18.948;2022-12-18T09:36:54;103984.05;;;-2.01;71.56
24013;BME280;12220;50.194;18.948;2022-12-18T09:39:02;103981.36;;;-2.01;71.49
24013;BME280;12220;50.194;18.948;2022-12-18T09:43:33;103978.73;;;-1.99;71.35
24013;BME280;12220;50.194;18.948;2022-12-18T09:45:41;103987.73;;;-1.97;71.31
24013;BME280;12220;50.194;18.948;2022-12-18T09:47:39;103985.06;;;-1.97;71.36
24013;BME280;12220;50.194;18.948;2022-12-18T09:49:46;103988.65;;;-1.97;71.31
24013;BME280;12220;50.194;18.948;2022-12-18T09:51:55;103989.58;;;-1.96;71.21
24013;BME280;12220;50.194;18.948;2022-12-18T09:54:03;103991.32;;;-1.97;71.21
24013;BME280;12220;50.194;18.948;2022-12-18T09:56:10;104007.52;;;-1.95;71.19
24013;BME280;12220;50.194;18.948;2022-12-18T10:00:36;103985.85;;;-2.00;71.00
24013;BME280;12220;50.194;18.948;2022-12-18T10:02:37;103983.22;;;-1.98;71.09
24013;BME280;12220;50.194;18.948;2022-12-18T10:04:39;103985.06;;;-1.97;71.09
24013;BME280;12220;50.194;18.948;2022-12-18T10:06:55;103978.84;;;-1.96;70.97
24013;BME280;12220;50.194;18.948;2022-12-18T10:13:44;103976.20;;;-1.95;70.86
24013;BME280;12220;50.194;18.948;2022-12-18T10:16:09;103972.52;;;-1.97;70.71
24013;BME280;12220;50.194;18.948;2022-12-18T10:18:31;103975.11;;;-2.00;70.61
24013;BME280;12220;50.194;18.948;2022-12-18T10:20:46;103969.58;;;-2.04;70.58
24013;BME280;12220;50.194;18.948;2022-12-18T10:23:12;103975.76;;;-2.07;70.60
24013;BME280;12220;50.194;18.948;2022-12-18T10:27:43;103963.02;;;-2.13;70.46
24013;BME280;12220;50.194;18.948;2022-12-18T10:29:45;103962.13;;;-2.13;70.62
24013;BME280;12220;50.194;18.948;2022-12-18T10:31:47;103960.34;;;-2.13;70.57
24013;BME280;12220;50.194;18.948;2022-12-18T10:33:48;103957.66;;;-2.13;70.63
24013;BME280;12220;50.194;18.948;2022-12-18T10:35:58;103953.27;;;-2.11;70.71
24013;BME280;12220;50.194;18.948;2022-12-18T10:38:07;103950.59;;;-2.11;70.57
24013;BME280;12220;50.194;18.948;2022-12-18T10:40:14;103963.17;;;-2.09;70.42
24013;BME280;12220;50.194;18.948;2022-12-18T10:42:18;103953.27;;;-2.11;70.49
24013;BME280;12220;50.194;18.948;2022-12-18T10:44:22;103944.38;;;-2.09;70.52
24013;BME280;12220;50.194;18.948;2022-12-18T10:46:23;103953.37;;;-2.07;70.53
24013;BME280;12220;50.194;18.948;2022-12-18T10:48:25;103934.63;;;-2.06;70.55
24013;BME280;12220;50.194;18.948;2022-12-18T10:50:34;103941.93;;;-2.02;70.55
24013;BME280;12220;50.194;18.948;2022-12-18T10:52:36;103941.13;;;-1.99;70.52
24013;BME280;12220;50.194;18.948;2022-12-18T10:54:39;103949.29;;;-1.96;70.38
24013;BME280;12220;50.194;18.948;2022-12-18T10:56:46;103949.29;;;-1.96;70.29
24013;BME280;12220;50.194;18.948;2022-12-18T11:01:20;103949.54;;;-1.88;70.45
24013;BME280;12220;50.194;18.948;2022-12-18T11:03:29;103946.09;;;-1.84;70.34
24013;BME280;12220;50.194;18.948;2022-12-18T11:05:33;103938.13;;;-1.81;70.29
24013;BME280;12220;50.194;18.948;2022-12-18T11:07:48;103921.25;;;-1.77;70.25
24013;BME280;12220;50.194;18.948;2022-12-18T11:10:00;103917.81;;;-1.73;70.33
24013;BME280;12220;50.194;18.948;2022-12-18T11:14:24;103916.26;;;-1.65;69.96
24013;BME280;12220;50.194;18.948;2022-12-18T11:16:26;103906.48;;;-1.63;69.98
24013;BME280;12220;50.194;18.948;2022-12-18T11:18:32;103914.69;;;-1.58;69.94
24013;BME280;12220;50.194;18.948;2022-12-18T11:20:35;103904.87;;;-1.56;69.91
24013;BME280;12220;50.194;18.948;2022-12-18T11:22:37;103910.39;;;-1.53;69.84
24013;BME280;12220;50.194;18.948;2022-12-18T11:24:39;103905.05;;;-1.51;69.90
24013;BME280;12220;50.194;18.948;2022-12-18T11:26:41;103908.77;;;-1.46;69.95
24013;BME280;12220;50.194;18.948;2022-12-18T11:28:50;103911.56;;;-1.43;69.92
24013;BME280;12220;50.194;18.948;2022-12-18T11:33:10;103915.36;;;-1.36;69.75
24013;BME280;12220;50.194;18.948;2022-12-18T11:37:40;103953.22;;;-1.29;69.73
24013;BME280;12220;50.194;18.948;2022-12-18T11:39:55;103919.29;;;-1.25;69.75
24013;BME280;12220;50.194;18.948;2022-12-18T11:44:25;103926.72;;;-1.16;69.71